Time;durP1;ratioP1;P1;durP2;ratioP2;P2;SDS_P1;SDS_P2;PMS_P1;PMS_P2;Temp;Humidity;BMP_temperature;BMP_pressure;BME280_temperature;BME280_humidity;BME280_pressure;Samples;Min_cycle;Max_cycle;Signal;HPM_P1;HPM_P2
2022/11/18 00:01:35;;;;;;;0.70;0.70;;;;;;;23.16;34.10;101773.38;4215024;28;20040;-67
2022/11/18 00:03:40;;;;;;;1.20;1.10;;;;;;;23.08;33.66;101760.78;4214594;28;20019;-67
2022/11/18 00:05:42;;;;;;;1.27;1.10;;;;;;;23.15;33.69;101776.44;4214543;28;20040;-66
2022/11/18 00:07:43;;;;;;;1.20;1.10;;;;;;;22.60;34.07;101692.28;4213790;28;20110;-67
2022/11/18 00:09:47;;;;;;;1.67;1.00;;;;;;;23.13;34.31;101785.09;4214521;28;20044;-67
2022/11/18 00:14:20;;;;;;;1.15;1.00;;;;;;;23.11;33.67;101778.13;4215452;28;20492;-68
2022/11/18 00:16:22;;;;;;;2.97;0.93;;;;;;;23.11;34.20;101778.94;4214001;28;20044;-66
2022/11/18 00:18:28;;;;;;;1.00;0.90;;;;;;;23.06;34.20;101773.38;4214567;28;20086;-70
2022/11/18 00:20:32;;;;;;;1.08;0.98;;;;;;;23.09;33.67;101778.38;4214358;28;20040;-70
2022/11/18 00:22:33;;;;;;;0.98;0.95;;;;;;;23.08;33.34;101777.53;4214663;28;20056;-69
2022/11/18 00:24:34;;;;;;;2.22;0.90;;;;;;;23.08;33.65;101787.88;4214149;28;20446;-68
2022/11/18 00:26:38;;;;;;;1.33;1.00;;;;;;;22.91;33.86;101771.38;4214268;28;20048;-69
2022/11/18 00:28:40;;;;;;;1.38;1.20;;;;;;;23.07;34.20;101800.16;4214695;28;20048;-69
2022/11/18 00:30:42;;;;;;;0.88;0.80;;;;;;;23.06;34.20;101802.13;4214248;28;20062;-68
2022/11/18 00:32:46;;;;;;;4.03;1.35;;;;;;;23.04;34.19;101806.28;4214362;28;20101;-69
2022/11/18 00:34:47;;;;;;;0.87;0.80;;;;;;;23.05;33.70;101810.78;4213527;28;20093;-69
2022/11/18 00:36:49;;;;;;;1.40;1.05;;;;;;;22.82;34.22;101773.81;4214119;28;20032;-68
2022/11/18 00:38:50;;;;;;;1.05;0.88;;;;;;;23.02;33.93;101808.53;4214688;28;20040;-69
2022/11/18 00:41:12;;;;;;;0.98;0.88;;;;;;;22.92;33.90;101800.13;4214371;28;20037;-69
2022/11/18 00:43:16;;;;;;;0.82;0.82;;;;;;;22.98;34.03;101799.00;4214547;28;20093;-69
2022/11/18 00:45:19;;;;;;;0.90;0.90;;;;;;;23.01;33.96;101809.63;4214452;28;20041;-69
2022/11/18 00:47:20;;;;;;;1.65;1.10;;;;;;;22.86;34.36;101790.84;4214125;28;20345;-69
2022/11/18 00:49:21;;;;;;;1.08;1.08;;;;;;;22.97;33.85;101814.09;4214110;28;20040;-67
2022/11/18 00:51:25;;;;;;;0.70;0.70;;;;;;;22.97;34.00;101814.09;4214145;28;20082;-68
2022/11/18 00:53:27;;;;;;;0.85;0.85;;;;;;;22.96;34.25;101812.41;4214813;28;20040;-69
2022/11/18 00:55:28;;;;;;;1.10;1.00;;;;;;;22.94;34.09;101809.88;4214040;28;20040;-68
2022/11/18 00:57:29;;;;;;;1.15;0.95;;;;;;;22.88;34.05;101802.59;4213700;28;20036;-68
2022/11/18 00:59:34;;;;;;;1.33;1.23;;;;;;;22.76;34.03;101790.81;4214058;28;20044;-69
2022/11/18 01:01:35;;;;;;;0.88;0.75;;;;;;;22.93;34.22;101818.53;4214099;28;20040;-69
2022/11/18 01:03:37;;;;;;;1.00;0.70;;;;;;;22.93;34.07;101818.53;4213952;28;20101;-69
2022/11/18 01:05:39;;;;;;;1.35;0.90;;;;;;;22.92;34.36;101814.06;4213801;28;20093;-69
2022/11/18 01:07:40;;;;;;;1.23;1.13;;;;;;;22.78;34.40;101785.81;4213888;28;20047;-68
2022/11/18 01:09:41;;;;;;;1.15;1.05;;;;;;;22.91;34.77;101807.66;4214312;28;20101;-67
2022/11/18 01:14:02;;;;;;;0.77;0.70;;;;;;;22.89;34.80;101822.94;4215998;28;20097;-68
2022/11/18 01:16:04;;;;;;;1.08;0.98;;;;;;;22.87;34.84;101825.19;4213511;28;20587;-68
2022/11/18 01:18:09;;;;;;;0.80;0.80;;;;;;;22.67;34.92;101798.84;4213959;28;20036;-68
2022/11/18 01:20:10;;;;;;;1.00;0.90;;;;;;;22.84;34.98;101832.97;4214389;28;20077;-69
2022/11/18 01:22:12;;;;;;;1.45;1.00;;;;;;;22.83;34.91;101831.31;4213519;28;20028;-70
2022/11/18 01:24:13;;;;;;;0.98;0.90;;;;;;;22.82;34.78;101842.75;4213910;28;20040;-68
2022/11/18 01:26:16;;;;;;;1.25;1.15;;;;;;;22.78;34.48;101839.66;4213458;28;20113;-68
2022/11/18 01:28:18;;;;;;;2.20;1.00;;;;;;;22.64;34.47;101824.53;4212559;28;20445;-68
2022/11/18 01:30:22;;;;;;;0.85;0.80;;;;;;;22.79;34.54;101846.06;4214196;28;20032;-68
2022/11/18 01:32:23;;;;;;;0.88;0.88;;;;;;;22.80;34.72;101845.78;4213704;28;20078;-68
2022/11/18 01:34:28;;;;;;;0.88;0.88;;;;;;;22.80;34.57;101839.38;4214327;28;20044;-68
2022/11/18 01:36:29;;;;;;;1.30;1.20;;;;;;;22.81;34.85;101847.47;4213940;28;20093;-68
2022/11/18 01:38:30;;;;;;;1.02;1.00;;;;;;;22.82;34.42;101851.13;4213865;28;20418;-68
2022/11/18 01:40:33;;;;;;;2.08;1.15;;;;;;;22.78;34.51;101845.25;4213760;28;20552;-69
2022/11/18 01:42:34;;;;;;;1.35;1.20;;;;;;;22.79;34.80;101846.06;4214121;28;20105;-69
2022/11/18 01:45:03;;;;;;;1.23;1.13;;;;;;;22.82;34.86;101854.75;4213835;28;20056;-68
2022/11/18 01:47:05;;;;;;;2.42;1.00;;;;;;;22.83;34.74;101858.38;4215726;28;20089;-68
2022/11/18 01:49:12;;;;;;;0.75;0.75;;;;;;;22.67;34.57;101831.50;4216688;28;20101;-69
2022/11/18 01:51:21;;;;;;;1.50;1.10;;;;;;;22.86;34.53;101870.94;4217072;28;20097;-69
2022/11/18 01:53:36;;;;;;;1.38;0.90;;;;;;;22.85;34.69;101864.50;4216805;28;20544;-68
2022/11/18 01:55:42;;;;;;;1.25;1.10;;;;;;;22.90;34.49;101869.31;4216759;28;20097;-69
2022/11/18 01:57:48;;;;;;;1.30;1.20;;;;;;;22.83;34.81;101862.00;4216086;28;20036;-68
2022/11/18 01:59:53;;;;;;;0.98;0.90;;;;;;;22.90;34.78;101878.53;4216709;28;20031;-69
2022/11/18 02:01:59;;;;;;;1.20;0.95;;;;;;;22.90;34.48;101881.31;4216622;28;20044;-69
2022/11/18 02:04:01;;;;;;;1.00;0.90;;;;;;;22.93;34.53;101885.53;4214279;28;20040;-66
2022/11/18 02:06:04;;;;;;;0.95;0.95;;;;;;;22.93;34.79;101891.09;4215114;28;20043;-69
2022/11/18 02:08:06;;;;;;;1.00;1.00;;;;;;;22.93;34.49;101896.69;4214682;28;20078;-69
2022/11/18 02:10:16;;;;;;;1.35;1.00;;;;;;;22.92;34.41;101906.19;4216117;28;20097;-70
2022/11/18 02:12:17;;;;;;;1.80;1.40;;;;;;;22.93;34.57;101908.69;4216753;28;20101;-70
2022/11/18 02:14:24;;;;;;;0.80;0.80;;;;;;;22.88;34.52;101905.00;4216544;28;20035;-70
2022/11/18 02:16:53;;;;;;;1.15;0.95;;;;;;;22.92;34.59;101903.38;4215912;28;20507;-70
2022/11/18 02:19:00;;;;;;;1.27;0.98;;;;;;;22.93;34.46;101902.28;4216388;28;20104;-70
2022/11/18 02:21:34;;;;;;;0.88;0.88;;;;;;;22.90;34.67;101897.22;4216303;28;20101;-69
2022/11/18 02:23:58;;;;;;;1.00;0.90;;;;;;;22.95;34.78;101908.41;4180520;28;20094;-70
2022/11/18 02:26:30;;;;;;;1.38;1.00;;;;;;;22.95;34.40;101925.16;4215768;28;20056;-70
2022/11/18 02:28:50;;;;;;;1.20;1.00;;;;;;;22.97;34.63;101925.75;4216260;28;20032;-70
2022/11/18 02:31:03;;;;;;;1.50;1.10;;;;;;;22.95;34.49;101916.78;4216027;28;20444;-69
2022/11/18 02:33:37;;;;;;;1.10;0.90;;;;;;;22.92;34.67;101922.94;4215920;28;20036;-70
2022/11/18 02:35:45;;;;;;;1.20;1.10;;;;;;;22.93;34.83;101913.44;4210847;28;20529;-70
2022/11/18 02:37:53;;;;;;;1.10;1.00;;;;;;;22.76;34.80;101892.09;4199109;28;20044;-70
2022/11/18 02:40:09;;;;;;;1.17;1.08;;;;;;;22.95;34.50;101927.94;4199096;28;20202;-70
2022/11/18 02:42:13;;;;;;;1.17;0.90;;;;;;;22.94;34.82;101920.69;4199478;28;20028;-70
2022/11/18 02:44:18;;;;;;;0.80;0.80;;;;;;;22.80;34.69;101909.97;4215833;28;20028;-70
2022/11/18 02:46:32;;;;;;;1.15;0.90;;;;;;;22.93;34.41;101924.59;4215406;28;20036;-69
2022/11/18 02:48:41;;;;;;;1.20;1.10;;;;;;;22.94;34.63;101937.44;4216009;28;20420;-70
2022/11/18 02:50:46;;;;;;;0.88;0.85;;;;;;;22.94;34.56;101929.06;4216068;28;20433;-70
2022/11/18 02:52:56;;;;;;;2.22;0.90;;;;;;;22.95;34.67;101930.72;4212276;28;20085;-69
2022/11/18 02:55:01;;;;;;;4.15;1.08;;;;;;;22.96;34.23;101935.22;4213802;28;20036;-69
2022/11/18 02:57:03;;;;;;;;;;;;;;;22.95;34.58;101941.91;4215335;28;20089;-69
2022/11/18 02:59:04;;;;;;;2.72;1.15;;;;;;;23.03;34.71;101946.97;4215280;28;19965;-69
2022/11/18 03:01:06;;;;;;;1.15;1.05;;;;;;;23.02;34.78;101950.88;4215785;28;20040;-69
2022/11/18 03:03:35;;;;;;;1.25;1.08;;;;;;;22.96;34.98;101954.78;4215848;28;20036;-69
2022/11/18 03:05:45;;;;;;;2.78;1.45;;;;;;;22.99;35.49;101940.25;4205483;28;20440;-69
2022/11/18 03:07:52;;;;;;;3.55;1.17;;;;;;;22.99;35.55;101941.09;4201708;28;20044;-69
2022/11/18 03:09:58;;;;;;;3.60;1.20;;;;;;;22.94;35.99;101937.44;4214001;28;20101;-69
2022/11/18 03:12:23;;;;;;;2.92;1.48;;;;;;;22.95;36.46;101939.09;4214874;28;20483;-69
2022/11/18 03:14:36;;;;;;;4.43;1.60;;;;;;;22.97;36.48;101940.53;4215331;28;20040;-69
2022/11/18 03:17:11;;;;;;;3.90;1.23;;;;;;;22.96;37.02;101940.81;4214551;28;20097;-70
2022/11/18 03:19:42;;;;;;;4.25;1.10;;;;;;;22.96;37.06;101941.66;4215159;28;20032;-70
2022/11/18 03:21:51;;;;;;;2.97;1.27;;;;;;;22.94;37.22;101931.84;4213877;28;20089;-69
2022/11/18 03:24:31;;;;;;;2.08;1.20;;;;;;;22.91;37.79;101935.19;4214995;28;20097;-70
2022/11/18 03:26:38;;;;;;;2.08;1.33;;;;;;;22.96;37.93;101940.81;4214806;28;20181;-69
2022/11/18 03:29:02;;;;;;;2.03;1.40;;;;;;;22.94;39.00;101927.09;4215030;28;20040;-70
2022/11/18 03:31:17;;;;;;;2.10;1.27;;;;;;;22.88;39.28;101919.78;4212497;28;20483;-69
2022/11/18 03:33:25;;;;;;;2.70;1.25;;;;;;;22.91;39.23;101921.22;4210812;28;20093;-70
2022/11/18 03:35:30;;;;;;;1.17;1.08;;;;;;;22.91;39.21;101916.50;4215068;28;20031;-70
2022/11/18 03:37:34;;;;;;;2.97;1.35;;;;;;;22.91;39.56;101910.94;4214842;28;20044;-70
2022/11/18 03:39:39;;;;;;;2.45;1.25;;;;;;;22.93;39.97;101925.44;4215548;28;20040;-70
2022/11/18 03:41:58;;;;;;;2.65;1.27;;;;;;;22.92;39.97;101929.34;4214515;28;20081;-70
2022/11/18 03:44:12;;;;;;;2.38;1.20;;;;;;;22.91;40.42;101933.25;4212389;28;20036;-70
2022/11/18 03:46:20;;;;;;;4.85;1.50;;;;;;;22.91;40.51;101933.25;4214525;28;20040;-70
2022/11/18 03:48:27;;;;;;;3.30;1.15;;;;;;;22.93;40.62;101925.44;4214239;28;20036;-68
2022/11/18 03:50:33;;;;;;;1.95;1.40;;;;;;;22.80;40.58;101895.19;4214878;28;20044;-70
2022/11/18 03:52:39;;;;;;;1.80;1.35;;;;;;;22.94;40.97;101915.09;4214711;28;20117;-70
2022/11/18 03:54:47;;;;;;;2.03;1.20;;;;;;;22.90;41.12;101914.81;4214987;28;20044;-70
2022/11/18 03:56:57;;;;;;;1.50;1.27;;;;;;;22.76;41.07;101897.66;4214360;28;20133;-71
2022/11/18 03:59:25;;;;;;;1.65;1.17;;;;;;;22.96;41.30;101924.06;4214456;28;20048;-70
2022/11/18 04:01:50;;;;;;;4.57;1.70;;;;;;;22.97;42.25;101926.56;4208079;28;20463;-70
2022/11/18 04:03:52;;;;;;;7.43;1.45;;;;;;;22.96;41.89;101921.28;4199471;28;20036;-70
2022/11/18 04:06:18;;;;;;;2.40;1.38;;;;;;;22.96;41.91;101918.47;4203419;28;20113;-70
2022/11/18 04:08:26;;;;;;;4.28;1.42;;;;;;;22.86;41.45;101902.47;4203098;28;20040;-70
2022/11/18 04:13:37;;;;;;;5.55;1.20;;;;;;;22.81;41.23;101900.50;4179470;28;20087;-70
2022/11/18 04:15:41;;;;;;;2.15;1.33;;;;;;;23.03;41.06;101935.81;4178473;28;20094;-70
2022/11/18 04:17:43;;;;;;;4.32;1.40;;;;;;;23.01;41.41;101935.25;4174107;28;20101;-69
2022/11/18 04:19:47;;;;;;;1.90;1.20;;;;;;;23.01;41.22;101938.06;4214452;28;20028;-69
2022/11/18 04:21:49;;;;;;;2.78;1.20;;;;;;;23.00;40.98;101936.34;4214331;28;20532;-70
2022/11/18 04:23:50;;;;;;;5.03;1.50;;;;;;;22.93;40.74;101925.44;4214302;28;20044;-70
2022/11/18 04:25:51;;;;;;;3.08;1.40;;;;;;;23.00;40.85;101942.78;4213636;28;20097;-70
2022/11/18 04:27:53;;;;;;;1.95;1.50;;;;;;;23.01;40.46;101949.22;4214471;28;20089;-70
2022/11/18 04:29:59;;;;;;;4.05;1.58;;;;;;;22.98;40.67;101949.75;4214692;28;20118;-70
2022/11/18 04:32:02;;;;;;;2.78;1.50;;;;;;;22.98;40.55;101950.59;4214475;28;20032;-70
2022/11/18 04:34:03;;;;;;;2.50;1.50;;;;;;;22.99;40.46;101957.00;4214192;28;20040;-69
2022/11/18 04:36:04;;;;;;;1.85;1.15;;;;;;;22.98;40.08;101960.91;4209064;28;20067;-70
2022/11/18 04:38:06;;;;;;;3.70;1.50;;;;;;;22.96;40.29;101955.59;4208598;28;20032;-70
2022/11/18 04:40:13;;;;;;;3.38;1.50;;;;;;;22.97;40.07;101964.81;4197621;28;20094;-69
2022/11/18 04:42:15;;;;;;;2.03;1.48;;;;;;;22.95;39.97;101961.44;4207001;28;20475;-70
2022/11/18 04:44:16;;;;;;;2.28;1.30;;;;;;;22.97;39.85;101962.88;4213597;28;20040;-70
2022/11/18 04:46:17;;;;;;;1.77;1.13;;;;;;;22.97;39.61;101962.03;4213574;28;20044;-70
2022/11/18 04:48:21;;;;;;;1.50;1.40;;;;;;;22.94;39.65;101965.34;4213696;28;20090;-70
2022/11/18 04:50:24;;;;;;;2.05;1.27;;;;;;;22.95;39.79;101967.03;4213886;28;20040;-69
2022/11/18 04:52:29;;;;;;;1.83;1.27;;;;;;;22.90;39.40;101959.47;4214214;28;20429;-69
2022/11/18 04:54:33;;;;;;;3.08;1.15;;;;;;;22.90;39.68;101953.03;4213828;28;20040;-70
2022/11/18 04:56:34;;;;;;;4.13;1.42;;;;;;;22.95;39.62;101956.69;4198765;28;20041;-70
2022/11/18 04:58:35;;;;;;;1.45;1.25;;;;;;;22.94;39.27;101955.03;4200647;28;20056;-69
2022/11/18 05:00:36;;;;;;;2.95;1.23;;;;;;;22.93;39.20;101950.56;4214420;28;20089;-69
2022/11/18 05:02:38;;;;;;;3.28;1.27;;;;;;;22.93;38.96;101963.69;4214503;28;20073;-70
2022/11/18 05:04:42;;;;;;;2.47;1.00;;;;;;;22.88;39.07;101960.81;4213736;28;20040;-70
2022/11/18 05:06:43;;;;;;;1.65;1.15;;;;;;;22.90;39.11;101969.78;4214128;28;20036;-70
2022/11/18 05:08:48;;;;;;;3.25;1.27;;;;;;;22.90;38.92;101976.22;4214049;28;20105;-69
2022/11/18 05:10:49;;;;;;;2.10;1.30;;;;;;;22.89;38.91;101968.94;4210545;28;20047;-69
2022/11/18 05:12:51;;;;;;;1.67;1.42;;;;;;;22.90;38.83;101969.78;4197538;28;20033;-70
2022/11/18 05:14:55;;;;;;;1.77;1.38;;;;;;;22.89;38.81;101968.06;4196740;28;20557;-70
2022/11/18 05:16:58;;;;;;;2.00;1.50;;;;;;;22.87;38.46;101967.53;4212236;28;20441;-70
2022/11/18 05:19:02;;;;;;;1.38;1.27;;;;;;;22.86;38.66;101963.03;4214177;28;20430;-70
2022/11/18 05:21:06;;;;;;;1.52;1.20;;;;;;;22.84;38.43;101964.16;4213636;28;20101;-69
2022/11/18 05:23:10;;;;;;;2.97;1.00;;;;;;;22.86;38.44;101963.03;4214484;28;20105;-69
2022/11/18 05:25:14;;;;;;;1.88;1.48;;;;;;;22.76;38.46;101953.47;4216291;28;20552;-69
2022/11/18 05:27:16;;;;;;;4.32;1.20;;;;;;;22.78;38.13;101954.06;4216460;28;20040;-69
2022/11/18 05:29:18;;;;;;;1.65;1.10;;;;;;;22.82;38.20;101969.16;4217351;28;20085;-70
2022/11/18 05:31:19;;;;;;;1.42;1.23;;;;;;;22.82;38.39;101963.59;4217478;28;20061;-69
2022/11/18 05:33:23;;;;;;;1.65;1.25;;;;;;;22.80;38.42;101960.22;4216904;28;20043;-70
2022/11/18 05:35:24;;;;;;;2.30;1.35;;;;;;;22.79;38.26;101969.69;4216912;28;20040;-70
2022/11/18 05:37:29;;;;;;;1.77;1.45;;;;;;;22.78;38.12;101972.78;4216514;28;20097;-72
2022/11/18 05:39:32;;;;;;;1.73;1.13;;;;;;;22.77;38.00;101977.50;4217148;28;20089;-69
2022/11/18 05:43:53;;;;;;;2.00;1.10;;;;;;;22.76;38.05;101970.22;4216801;28;20086;-70
2022/11/18 05:45:57;;;;;;;1.40;1.25;;;;;;;22.75;38.00;101962.97;4216453;28;20040;-69
2022/11/18 05:48:03;;;;;;;1.27;1.13;;;;;;;22.75;38.23;101964.91;4217033;28;20452;-70
2022/11/18 05:50:05;;;;;;;1.88;1.70;;;;;;;22.75;37.96;101962.97;4217068;28;20044;-69
2022/11/18 05:52:09;;;;;;;1.38;1.23;;;;;;;22.64;37.91;101946.44;4216514;28;20086;-69
2022/11/18 05:54:13;;;;;;;2.05;1.20;;;;;;;22.69;37.94;101964.06;4216745;28;20372;-69
2022/11/18 05:56:18;;;;;;;1.40;1.03;;;;;;;22.71;37.96;101961.81;4216291;28;20036;-69
2022/11/18 05:58:22;;;;;;;1.50;1.23;;;;;;;22.71;37.91;101964.63;4216613;28;20044;-70
2022/11/18 06:00:27;;;;;;;1.52;1.15;;;;;;;22.71;38.06;101960.97;4218670;28;20036;-69
2022/11/18 06:02:31;;;;;;;1.35;1.25;;;;;;;22.66;37.65;101952.59;4216598;28;20093;-70
2022/11/18 06:04:40;;;;;;;2.00;1.55;;;;;;;22.70;37.60;101953.72;4216682;28;20036;-70
2022/11/18 06:06:45;;;;;;;1.45;1.20;;;;;;;22.69;37.75;101957.63;4212528;28;20040;-68
2022/11/18 06:09:05;;;;;;;1.27;1.00;;;;;;;22.65;37.93;101962.06;4215664;28;20105;-69
2022/11/18 06:11:11;;;;;;;1.52;1.23;;;;;;;22.66;37.49;101959.00;4215380;28;20273;-69
2022/11/18 06:13:19;;;;;;;2.85;1.40;;;;;;;22.64;37.82;101954.81;4215384;28;20089;-69
2022/11/18 06:15:25;;;;;;;1.40;1.30;;;;;;;22.64;37.87;101952.84;4216561;28;20086;-69
2022/11/18 06:17:35;;;;;;;1.42;1.33;;;;;;;22.62;37.79;101946.69;4216298;28;20040;-70
2022/11/18 06:19:37;;;;;;;2.65;1.25;;;;;;;22.63;37.88;101945.56;4216458;28;20052;-69
2022/11/18 06:21:38;;;;;;;1.38;1.27;;;;;;;22.63;37.78;101947.53;4216110;28;20044;-69
2022/11/18 06:23:41;;;;;;;1.67;1.35;;;;;;;22.60;37.72;101937.75;4215835;28;20048;-69
2022/11/18 06:25:43;;;;;;;1.85;1.48;;;;;;;22.53;37.51;101920.41;4215844;28;20102;-68
2022/11/18 06:27:46;;;;;;;3.15;1.33;;;;;;;22.61;37.75;101935.81;4215871;28;20476;-69
2022/11/18 06:29:47;;;;;;;1.50;1.38;;;;;;;22.59;37.53;101941.66;4216418;28;20057;-70
2022/11/18 06:31:51;;;;;;;1.58;1.23;;;;;;;22.58;37.33;101939.97;4215249;28;20085;-69
2022/11/18 06:33:52;;;;;;;1.95;1.00;;;;;;;22.50;37.59;101927.38;4215988;28;20044;-69
2022/11/18 06:35:54;;;;;;;1.50;1.13;;;;;;;22.56;37.25;101936.63;4215747;28;20085;-70
2022/11/18 06:37:55;;;;;;;1.35;1.20;;;;;;;22.56;37.34;101936.63;4216377;28;20097;-69
2022/11/18 06:39:56;;;;;;;2.83;2.20;;;;;;;22.53;37.27;101939.94;4215798;28;20040;-69
2022/11/18 06:42:01;;;;;;;1.88;1.33;;;;;;;22.53;37.59;101939.94;4215776;28;20074;-69
2022/11/18 06:44:02;;;;;;;1.75;1.20;;;;;;;22.53;37.49;101932.41;4216095;28;20024;-68
2022/11/18 06:48:27;;;;;;;1.52;1.30;;;;;;;22.48;37.19;101935.16;4215056;28;20093;-72
2022/11/18 06:50:29;;;;;;;1.60;1.42;;;;;;;22.51;37.25;101948.56;4214152;28;20512;-69
2022/11/18 06:52:33;;;;;;;1.45;1.25;;;;;;;22.35;37.25;101924.44;4214547;28;20028;-69
2022/11/18 06:54:35;;;;;;;1.77;1.50;;;;;;;22.50;37.22;101944.13;4214822;28;20368;-69
2022/11/18 06:56:36;;;;;;;1.75;1.40;;;;;;;22.37;37.07;101924.22;4214005;28;20035;-69
2022/11/18 06:58:41;;;;;;;1.40;1.30;;;;;;;22.49;37.28;101941.56;4215390;28;20044;-70
2022/11/18 07:00:42;;;;;;;2.13;1.40;;;;;;;22.45;36.97;101940.41;4215944;28;20097;-68
2022/11/18 07:02:43;;;;;;;1.77;1.52;;;;;;;22.47;37.12;101943.81;4215844;28;20102;-69
2022/11/18 07:04:45;;;;;;;1.38;1.27;;;;;;;22.44;36.94;101939.59;4215592;28;20040;-69
2022/11/18 07:06:49;;;;;;;1.77;1.30;;;;;;;22.35;37.08;101926.41;4213785;28;20040;-69
2022/11/18 07:08:53;;;;;;;1.70;1.60;;;;;;;22.39;37.09;101927.56;4215416;28;20097;-69
2022/11/18 07:10:55;;;;;;;1.25;1.15;;;;;;;22.39;36.88;101935.94;4215520;28;20040;-69
2022/11/18 07:12:59;;;;;;;1.33;1.23;;;;;;;22.37;37.20;101933.41;4215662;28;20032;-70
2022/11/18 07:15:00;;;;;;;1.20;1.10;;;;;;;22.34;36.91;101925.56;4215300;28;20036;-70
2022/11/18 07:17:07;;;;;;;2.15;1.27;;;;;;;22.23;37.10;101910.72;4215344;28;20044;-68
2022/11/18 07:19:11;;;;;;;1.00;1.00;;;;;;;22.15;37.38;101897.25;4215112;28;20062;-69
2022/11/18 07:21:17;;;;;;;1.50;1.40;;;;;;;22.29;37.17;101908.81;4214602;28;20044;-69
2022/11/18 07:23:18;;;;;;;1.70;1.55;;;;;;;22.28;37.21;101907.13;4213309;28;20040;-70
2022/11/18 07:25:22;;;;;;;1.30;1.20;;;;;;;22.24;37.35;101901.25;4214850;28;20040;-70
2022/11/18 07:27:26;;;;;;;1.37;1.27;;;;;;;22.27;37.28;101900.72;4213409;28;20082;-70
2022/11/18 07:29:27;;;;;;;1.52;1.23;;;;;;;22.39;36.97;101916.41;4215118;28;20100;-69
2022/11/18 07:31:29;;;;;;;1.35;1.25;;;;;;;22.24;37.01;101904.03;4213727;28;20032;-69
2022/11/18 07:33:31;;;;;;;1.50;1.40;;;;;;;22.36;36.94;101925.28;4214220;28;20069;-69
2022/11/18 07:35:32;;;;;;;1.95;1.38;;;;;;;22.43;36.88;101931.50;4215207;28;20040;-69
2022/11/18 07:37:36;;;;;;;2.53;1.70;;;;;;;22.44;36.88;101933.16;4214833;28;20032;-70
2022/11/18 07:39:37;;;;;;;1.48;1.17;;;;;;;22.44;36.91;101938.75;4215220;28;20044;-69
2022/11/18 07:41:42;;;;;;;1.27;1.17;;;;;;;22.36;36.65;101925.28;4214920;28;20032;-70
2022/11/18 07:43:47;;;;;;;1.63;1.30;;;;;;;22.46;36.68;101930.97;4214182;28;20097;-70
2022/11/18 07:45:48;;;;;;;1.65;1.20;;;;;;;22.46;36.75;101925.41;4214668;28;20037;-70
2022/11/18 07:47:49;;;;;;;1.55;1.45;;;;;;;22.48;36.44;101923.16;4214947;28;20028;-70
2022/11/18 07:49:50;;;;;;;1.83;1.20;;;;;;;22.47;36.43;101921.50;4214475;28;20101;-69
2022/11/18 07:51:53;;;;;;;1.80;1.52;;;;;;;22.47;36.33;101918.69;4214943;28;20100;-69
2022/11/18 07:53:54;;;;;;;1.33;1.23;;;;;;;22.38;36.57;101911.94;4214148;28;20101;-70
2022/11/18 07:55:59;;;;;;;1.45;1.23;;;;;;;22.49;36.63;101916.47;4213319;28;20429;-69
2022/11/18 07:58:00;;;;;;;1.55;1.42;;;;;;;22.49;36.52;101917.31;4213532;28;20097;-69
2022/11/18 08:00:04;;;;;;;1.23;1.05;;;;;;;22.49;36.49;101913.69;4211631;28;20036;-68
2022/11/18 08:02:06;;;;;;;1.55;1.45;;;;;;;22.50;36.47;101920.97;4204777;28;20081;-69
2022/11/18 08:04:10;;;;;;;1.30;1.08;;;;;;;22.50;36.44;101909.81;4213013;28;20157;-69
2022/11/18 08:06:13;;;;;;;1.30;1.20;;;;;;;22.50;36.29;101909.81;4212491;28;20093;-70
2022/11/18 08:08:14;;;;;;;1.65;1.40;;;;;;;22.50;36.24;101909.81;4213308;28;20047;-69
2022/11/18 08:10:16;;;;;;;2.08;1.20;;;;;;;22.50;36.50;101909.81;4213281;28;20047;-70
2022/11/18 08:12:17;;;;;;;1.70;1.60;;;;;;;22.31;36.33;101885.13;4212289;28;20044;-69
2022/11/18 08:14:20;;;;;;;1.30;1.20;;;;;;;22.45;36.52;101895.81;4214094;28;20484;-69
2022/11/18 08:16:28;;;;;;;1.38;1.27;;;;;;;22.49;36.27;101908.94;4212873;28;20487;-68
2022/11/18 08:18:31;;;;;;;1.52;1.40;;;;;;;22.50;36.29;101904.22;4213218;28;20044;-70
2022/11/18 08:20:36;;;;;;;1.50;1.40;;;;;;;22.39;36.14;101894.94;4212363;28;20035;-69
2022/11/18 08:22:38;;;;;;;1.20;1.10;;;;;;;22.50;36.36;101915.38;4213456;28;20070;-70
2022/11/18 08:24:39;;;;;;;2.58;1.27;;;;;;;22.43;36.18;101904.44;4214282;28;20048;-69
2022/11/18 08:26:40;;;;;;;1.60;1.25;;;;;;;22.47;36.25;101915.91;4212836;28;20121;-70
2022/11/18 08:28:43;;;;;;;1.58;1.27;;;;;;;22.49;36.09;101910.88;4213619;28;20085;-69
2022/11/18 08:30:44;;;;;;;1.50;1.35;;;;;;;22.47;36.49;101913.97;4212290;28;20044;-69
2022/11/18 08:32:45;;;;;;;1.50;1.27;;;;;;;22.41;36.03;101905.84;4212700;28;20117;-69
2022/11/18 08:34:47;;;;;;;0.90;0.90;;;;;;;22.48;36.39;101912.84;4212473;28;20475;-69
2022/11/18 08:36:54;;;;;;;1.75;1.20;;;;;;;22.49;36.29;101908.09;4213039;28;20116;-69
2022/11/18 08:38:59;;;;;;;0.85;0.80;;;;;;;22.51;36.31;101917.06;4213221;28;20117;-69
2022/11/18 08:41:02;;;;;;;1.60;1.42;;;;;;;22.51;35.94;101911.47;4213224;28;20066;-67
2022/11/18 08:43:03;;;;;;;1.98;1.10;;;;;;;22.48;35.84;101906.44;4213184;28;20089;-69
2022/11/18 08:45:08;;;;;;;1.40;1.17;;;;;;;22.49;36.06;101913.69;4212940;28;20032;-68
2022/11/18 08:47:09;;;;;;;;;;;;;;;22.47;36.12;101922.31;4213293;28;20052;-68
2022/11/18 08:49:11;;;;;;;1.50;1.27;;;;;;;22.54;35.95;101916.50;4214230;28;19912;-68
2022/11/18 08:51:15;;;;;;;1.55;1.30;;;;;;;22.50;35.99;101915.38;4212960;28;20105;-68
2022/11/18 08:53:17;;;;;;;1.05;0.95;;;;;;;22.48;35.81;101925.94;4212402;28;20413;-68
2022/11/18 08:55:18;;;;;;;1.60;1.33;;;;;;;22.45;35.94;101930.13;4214066;28;20031;-69
2022/11/18 08:57:19;;;;;;;1.40;1.30;;;;;;;22.42;35.91;101936.25;4215747;28;20093;-68
2022/11/18 08:59:21;;;;;;;1.27;1.15;;;;;;;22.39;35.73;101930.34;4217149;28;20040;-68
2022/11/18 09:01:25;;;;;;;2.17;1.27;;;;;;;22.38;35.86;101937.03;4217744;28;20113;-67
2022/11/18 09:03:26;;;;;;;1.43;1.27;;;;;;;22.35;35.97;101935.59;4217701;28;20040;-68
2022/11/18 09:05:27;;;;;;;1.48;1.38;;;;;;;22.34;35.84;101936.72;4217038;28;20085;-68
2022/11/18 09:07:28;;;;;;;1.52;1.20;;;;;;;22.31;35.85;101935.31;4217117;28;20048;-68
2022/11/18 09:09:30;;;;;;;1.30;1.20;;;;;;;22.29;36.20;101942.25;4217123;28;20040;-68
2022/11/18 09:11:31;;;;;;;1.23;1.13;;;;;;;22.29;36.06;101937.53;4217723;28;20172;-68
2022/11/18 09:13:35;;;;;;;1.23;1.13;;;;;;;22.27;35.96;101934.19;4217167;28;20105;-68
2022/11/18 09:15:37;;;;;;;3.05;1.40;;;;;;;22.25;35.94;101935.53;4217468;28;20094;-68
2022/11/18 09:17:38;;;;;;;1.65;1.50;;;;;;;22.22;35.94;101936.06;4217232;28;20047;-68
2022/11/18 09:19:43;;;;;;;1.75;1.52;;;;;;;22.23;36.13;101943.34;4217127;28;20090;-68
2022/11/18 09:21:44;;;;;;;2.00;1.48;;;;;;;22.15;35.97;101936.28;4216420;28;20044;-68
2022/11/18 09:23:45;;;;;;;1.55;1.38;;;;;;;22.24;36.22;101951.44;4217250;28;20097;-70
2022/11/18 09:25:47;;;;;;;1.60;1.50;;;;;;;22.23;36.27;101952.53;4215581;28;20040;-68
2022/11/18 09:27:48;;;;;;;1.48;1.27;;;;;;;22.21;36.10;101946.38;4217116;28;20040;-68
2022/11/18 09:29:55;;;;;;;1.50;1.23;;;;;;;22.13;35.92;101943.22;4217153;28;20039;-68
2022/11/18 09:32:00;;;;;;;1.60;1.50;;;;;;;22.20;36.20;101950.28;4216047;28;20430;-69
2022/11/18 09:34:02;;;;;;;1.58;1.45;;;;;;;22.20;35.80;101963.38;4217281;28;20442;-68
2022/11/18 09:36:12;;;;;;;1.50;1.40;;;;;;;22.19;35.66;101956.97;4216937;28;20036;-67
2022/11/18 09:38:14;;;;;;;1.50;1.40;;;;;;;22.18;36.23;101962.81;4217185;28;20441;-68
2022/11/18 09:40:17;;;;;;;1.92;1.75;;;;;;;22.18;35.84;101955.28;4217257;28;20040;-68
2022/11/18 09:43:06;;;;;;;1.73;1.23;;;;;;;22.16;35.96;101954.69;4217272;28;20052;-68
2022/11/18 09:45:21;;;;;;;1.40;1.30;;;;;;;22.18;36.14;101955.28;4193143;28;20093;-68
2022/11/18 09:47:34;;;;;;;1.50;1.30;;;;;;;22.18;35.91;101948.88;4216636;28;20089;-68
2022/11/18 09:49:38;;;;;;;1.40;1.30;;;;;;;22.18;35.90;101957.25;4217155;28;20093;-68
2022/11/18 09:51:51;;;;;;;1.40;1.30;;;;;;;22.11;36.29;101951.81;4216916;28;20471;-68
2022/11/18 09:53:52;;;;;;;1.50;1.35;;;;;;;22.15;35.79;101952.19;4216594;28;20161;-68
2022/11/18 09:55:54;;;;;;;1.60;1.50;;;;;;;22.14;36.14;101944.94;4215151;28;20123;-68
2022/11/18 09:57:57;;;;;;;1.38;1.27;;;;;;;22.17;36.30;101961.94;4215328;28;20040;-68